createdAt,value
2023-05-07T00:00:09.648Z,75.57
2023-05-07T00:02:39.778Z,76.15
2023-05-07T00:05:08.705Z,76.39
2023-05-07T00:07:37.060Z,75.97
2023-05-07T00:10:07.310Z,76.43
2023-05-07T00:12:35.336Z,76.65
2023-05-07T00:15:04.753Z,75.77
2023-05-07T00:17:35.377Z,75.66
2023-05-07T00:20:06.086Z,75.75
2023-05-07T00:22:35.028Z,76.04
2023-05-07T00:25:02.946Z,76.18
2023-05-07T00:27:30.785Z,76.32
2023-05-07T00:29:58.664Z,76.23
2023-05-07T00:32:26.474Z,76.43
2023-05-07T00:34:54.495Z,77.09
2023-05-07T00:37:22.309Z,77.58
2023-05-07T00:39:51.115Z,77.00
2023-05-07T00:42:19.399Z,77.20
2023-05-07T00:44:47.673Z,76.65
2023-05-07T00:47:16.256Z,77.31
2023-05-07T00:49:45.712Z,77.40
2023-05-07T00:52:18.500Z,76.41
2023-05-07T00:54:48.864Z,76.24
2023-05-07T00:57:17.232Z,76.03
2023-05-07T00:59:45.229Z,76.58
2023-05-07T01:02:13.638Z,77.42
2023-05-07T01:04:41.771Z,77.76
2023-05-07T01:07:11.006Z,77.50
2023-05-07T01:09:39.898Z,77.45
2023-05-07T01:12:08.492Z,78.65
2023-05-07T01:14:36.584Z,78.29
2023-05-07T01:17:05.178Z,78.44
2023-05-07T01:24:24.984Z,77.83
2023-05-07T01:26:52.991Z,77.86
2023-05-07T01:29:21.010Z,78.06
2023-05-07T01:31:51.950Z,78.83
2023-05-07T01:34:22.792Z,78.87
2023-05-07T01:36:51.198Z,79.05
2023-05-07T01:39:19.422Z,78.49
2023-05-07T01:41:48.249Z,78.32
2023-05-07T01:44:17.878Z,77.87
2023-05-07T01:46:46.982Z,77.19
2023-05-07T01:49:15.607Z,76.61
2023-05-07T01:51:44.802Z,78.00
2023-05-07T01:54:12.758Z,78.10
2023-05-07T01:56:41.016Z,78.60
2023-05-07T01:59:08.988Z,77.00
2023-05-07T02:01:36.887Z,76.48
2023-05-07T02:04:05.204Z,77.13
2023-05-07T02:06:33.306Z,76.46
2023-05-07T02:09:05.707Z,76.15
2023-05-07T02:11:34.009Z,76.15
2023-05-07T02:14:02.041Z,76.76
2023-05-07T02:16:30.179Z,77.36
2023-05-07T02:18:59.334Z,77.79
2023-05-07T02:21:29.410Z,77.26
2023-05-07T02:23:58.567Z,77.87
2023-05-07T02:26:27.134Z,78.06
2023-05-07T02:28:55.240Z,78.31
2023-05-07T02:31:23.444Z,77.13
2023-05-07T02:33:51.557Z,77.49
2023-05-07T02:36:19.434Z,77.24
2023-05-07T02:38:59.731Z,77.42
2023-05-07T02:41:29.682Z,77.88
2023-05-07T02:43:57.631Z,76.73
2023-05-07T02:46:26.092Z,76.66
2023-05-07T02:49:01.550Z,78.21
2023-05-07T02:54:48.615Z,79.15
2023-05-07T02:57:17.071Z,78.73
2023-05-07T02:59:45.090Z,78.42
2023-05-07T03:02:15.218Z,78.06
2023-05-07T03:04:43.158Z,78.37
2023-05-07T03:07:11.196Z,78.29
2023-05-07T03:09:39.167Z,78.56
2023-05-07T03:12:08.084Z,79.11
2023-05-07T03:14:36.248Z,79.10
2023-05-07T03:17:04.110Z,78.80
2023-05-07T03:19:32.161Z,78.92
2023-05-07T03:22:00.053Z,79.02
2023-05-07T03:24:28.098Z,79.08
2023-05-07T03:26:56.141Z,79.67
2023-05-07T03:29:24.092Z,80.23
2023-05-07T03:31:52.094Z,79.63
2023-05-07T03:34:23.341Z,80.28
2023-05-07T03:36:51.310Z,80.19
2023-05-07T03:39:20.530Z,80.02
2023-05-07T03:41:49.022Z,80.43
2023-05-07T03:44:17.008Z,80.33
2023-05-07T03:46:45.299Z,80.06
2023-05-07T03:49:13.950Z,81.32
2023-05-07T03:51:42.015Z,81.34
2023-05-07T03:54:09.933Z,82.36
2023-05-07T03:56:39.666Z,82.22
2023-05-07T03:59:07.878Z,81.80
2023-05-07T04:01:36.157Z,81.87
2023-05-07T04:04:05.615Z,81.65
2023-05-07T04:06:34.848Z,82.14
2023-05-07T04:09:02.905Z,81.65
2023-05-07T04:11:31.061Z,81.59
2023-05-07T04:13:59.590Z,83.04
2023-05-07T04:16:27.686Z,83.06
2023-05-07T04:18:56.116Z,82.53
2023-05-07T04:21:24.260Z,83.13
2023-05-07T04:23:52.977Z,83.53
2023-05-07T04:26:22.477Z,82.24
2023-05-07T04:28:50.685Z,82.73
2023-05-07T04:31:18.681Z,82.62
2023-05-07T04:33:51.864Z,81.90
2023-05-07T04:36:20.332Z,82.34
2023-05-07T04:38:53.740Z,82.07
2023-05-07T04:41:22.043Z,81.78
2023-05-07T04:43:50.763Z,81.14
2023-05-07T04:46:20.890Z,80.85
2023-05-07T04:48:50.939Z,81.30
2023-05-07T04:51:19.014Z,81.67
2023-05-07T04:53:47.090Z,81.02
2023-05-07T04:56:14.995Z,80.86
2023-05-07T04:58:45.562Z,80.53
2023-05-07T05:01:13.721Z,80.83
2023-05-07T05:03:42.501Z,80.78
2023-05-07T05:06:11.173Z,80.11
2023-05-07T05:08:39.148Z,80.23
2023-05-07T05:11:07.023Z,79.75
2023-05-07T05:13:37.414Z,79.86
2023-05-07T05:16:12.393Z,79.00
2023-05-07T05:18:41.755Z,78.37
2023-05-07T05:21:11.622Z,78.23
2023-05-07T05:23:40.551Z,77.75
2023-05-07T05:26:09.300Z,77.47
2023-05-07T05:28:37.551Z,78.40
2023-05-07T05:31:07.023Z,78.59
2023-05-07T05:33:37.337Z,78.00
2023-05-07T05:36:07.742Z,77.88
2023-05-07T05:38:36.774Z,77.27
2023-05-07T05:41:05.103Z,76.70
2023-05-07T05:43:33.037Z,76.18
2023-05-07T05:46:02.118Z,75.62
2023-05-07T05:48:31.107Z,75.51
2023-05-07T05:51:01.339Z,75.79
2023-05-07T05:53:29.375Z,76.91
2023-05-07T05:55:57.400Z,76.46
2023-05-07T05:58:26.232Z,75.80
2023-05-07T06:00:59.873Z,73.47
2023-05-07T06:03:30.077Z,65.39
2023-05-07T06:06:02.050Z,58.29
2023-05-07T06:08:31.550Z,54.61
2023-05-07T06:11:02.729Z,50.12
2023-05-07T06:13:32.826Z,47.44
2023-05-07T06:16:00.937Z,44.68
2023-05-07T06:18:28.851Z,42.13
2023-05-07T06:20:57.565Z,40.08
2023-05-07T06:23:29.055Z,38.13
2023-05-07T06:25:57.567Z,36.53
2023-05-07T06:28:37.114Z,34.97
2023-05-07T06:31:16.351Z,33.81
2023-05-07T06:33:49.610Z,33.05
2023-05-07T06:36:18.492Z,32.07
2023-05-07T06:38:47.776Z,36.33
2023-05-07T06:41:17.383Z,35.48
2023-05-07T06:43:45.931Z,32.83
2023-05-07T06:46:31.639Z,31.85
2023-05-07T06:48:59.681Z,31.23
2023-05-07T06:51:29.212Z,31.15
2023-05-07T06:53:59.473Z,30.00
2023-05-07T06:56:27.766Z,29.38
2023-05-07T06:58:56.161Z,29.71
2023-05-07T07:01:24.261Z,28.42
2023-05-07T07:03:52.698Z,28.94
2023-05-07T07:06:22.490Z,29.06
2023-05-07T07:08:50.320Z,29.72
2023-05-07T07:11:20.004Z,28.50
2023-05-07T07:13:48.515Z,26.51
2023-05-07T07:16:16.949Z,26.72
2023-05-07T07:18:45.548Z,26.30
2023-05-07T07:21:13.584Z,27.16
2023-05-07T07:23:41.894Z,25.58
2023-05-07T07:26:13.104Z,25.14
2023-05-07T07:28:46.132Z,24.49
2023-05-07T07:31:17.828Z,24.07
2023-05-07T07:33:47.029Z,23.67
2023-05-07T07:36:15.325Z,23.15
2023-05-07T07:38:44.182Z,22.41
2023-05-07T07:41:12.962Z,22.47
2023-05-07T07:43:41.464Z,21.68
2023-05-07T07:46:10.386Z,23.59
2023-05-07T07:48:39.422Z,26.07
2023-05-07T07:51:07.867Z,28.36
2023-05-07T07:53:36.009Z,27.04
2023-05-07T07:56:05.882Z,28.63
2023-05-07T07:58:37.134Z,29.53
2023-05-07T08:01:05.830Z,29.29
2023-05-07T08:03:34.481Z,28.79
2023-05-07T08:06:04.219Z,28.02
2023-05-07T08:08:34.403Z,26.76
2023-05-07T08:11:03.183Z,26.20
2023-05-07T08:13:34.571Z,26.63
2023-05-07T08:16:02.973Z,29.32
2023-05-07T08:18:31.964Z,30.58
2023-05-07T08:21:03.427Z,31.63
2023-05-07T08:23:33.343Z,31.19
2023-05-07T08:26:02.154Z,33.44
2023-05-07T08:28:31.957Z,32.24
2023-05-07T08:31:04.517Z,31.74
2023-05-07T08:33:37.382Z,31.94
2023-05-07T08:36:06.609Z,32.24
2023-05-07T08:38:35.215Z,32.64
2023-05-07T08:41:04.245Z,34.41
2023-05-07T08:43:35.133Z,35.00
2023-05-07T08:46:07.001Z,36.79
2023-05-07T08:48:38.798Z,38.18
2023-05-07T08:51:16.807Z,38.56
2023-05-07T08:53:49.684Z,39.34
2023-05-07T08:56:23.540Z,40.49
2023-05-07T08:58:57.863Z,41.55
2023-05-07T09:01:27.780Z,42.16
2023-05-07T09:03:57.259Z,41.60
2023-05-07T09:06:28.044Z,41.39
2023-05-07T09:08:57.000Z,41.10
2023-05-07T09:11:29.760Z,40.33
2023-05-07T09:14:03.435Z,38.41
2023-05-07T09:16:37.150Z,37.10
2023-05-07T09:19:06.550Z,37.30
2023-05-07T09:21:36.974Z,37.34
2023-05-07T09:24:08.825Z,37.18
2023-05-07T09:26:41.531Z,37.04
2023-05-07T09:29:12.063Z,37.23
2023-05-07T09:31:41.760Z,38.14
2023-05-07T09:34:13.801Z,39.16
2023-05-07T09:36:45.851Z,39.59
2023-05-07T09:39:15.180Z,39.12
2023-05-07T09:41:48.139Z,38.59
2023-05-07T09:44:26.050Z,39.52
2023-05-07T09:46:56.993Z,39.14
2023-05-07T09:49:37.222Z,39.92
2023-05-07T09:52:12.914Z,39.27
2023-05-07T09:54:48.588Z,37.74
2023-05-07T09:57:22.116Z,37.86
2023-05-07T09:59:56.842Z,37.10
2023-05-07T10:02:31.672Z,36.72
2023-05-07T10:05:01.857Z,38.64
2023-05-07T10:07:34.086Z,37.33
2023-05-07T10:10:09.023Z,38.74
2023-05-07T10:12:42.879Z,37.24
2023-05-07T10:15:18.462Z,36.68
2023-05-07T10:17:51.498Z,35.80
2023-05-07T10:20:20.496Z,35.17
2023-05-07T10:22:51.912Z,36.66
2023-05-07T10:25:33.937Z,36.71
2023-05-07T10:28:12.129Z,35.53
2023-05-07T10:31:10.143Z,35.30
2023-05-07T10:33:48.264Z,35.49
2023-05-07T10:36:19.218Z,35.56
2023-05-07T10:38:48.125Z,34.08
2023-05-07T10:41:20.056Z,34.06
2023-05-07T10:43:49.280Z,34.17
2023-05-07T10:46:26.420Z,34.26
2023-05-07T10:49:17.656Z,35.29
2023-05-07T10:52:17.275Z,35.63
2023-05-07T10:55:22.811Z,36.20
2023-05-07T11:01:51.338Z,33.96
2023-05-07T11:04:28.890Z,35.29
2023-05-07T11:07:14.215Z,34.36
2023-05-07T11:09:54.428Z,33.78
2023-05-07T11:12:39.740Z,35.28
2023-05-07T11:15:55.891Z,34.67
2023-05-07T11:18:51.819Z,33.68
2023-05-07T11:21:40.226Z,34.09
2023-05-07T11:24:29.296Z,34.67
2023-05-07T11:27:02.259Z,34.95
2023-05-07T11:29:32.690Z,34.81
2023-05-07T11:32:14.668Z,33.25
2023-05-07T11:34:54.022Z,36.93
2023-05-07T11:37:24.388Z,34.46
2023-05-07T11:40:16.215Z,34.41
2023-05-07T11:42:44.989Z,33.66
2023-05-07T11:45:13.289Z,34.75
2023-05-07T11:47:43.360Z,33.66
2023-05-07T11:50:13.132Z,33.26
2023-05-07T11:52:41.818Z,34.03
2023-05-07T11:55:10.646Z,34.72
2023-05-07T11:57:39.164Z,35.13
2023-05-07T12:00:08.435Z,34.47
2023-05-07T12:02:43.553Z,32.47
2023-05-07T12:05:12.520Z,32.82
2023-05-07T12:07:41.258Z,31.34
2023-05-07T12:10:09.622Z,31.56
2023-05-07T12:12:47.387Z,32.65
2023-05-07T12:15:19.306Z,31.91
2023-05-07T12:17:48.039Z,32.28
2023-05-07T12:20:16.944Z,33.14
2023-05-07T12:22:45.747Z,34.72
2023-05-07T12:25:20.303Z,34.59
2023-05-07T12:27:53.115Z,33.31
2023-05-07T12:30:21.548Z,33.83
2023-05-07T12:32:53.825Z,34.37
2023-05-07T12:35:29.658Z,35.66
2023-05-07T12:38:01.211Z,36.62
2023-05-07T12:40:40.783Z,36.39
2023-05-07T12:43:09.987Z,32.82
2023-05-07T12:45:42.700Z,32.89
2023-05-07T12:48:12.329Z,33.62
2023-05-07T12:50:41.296Z,32.62
2023-05-07T12:53:13.550Z,32.49
2023-05-07T12:55:43.645Z,34.22
2023-05-07T12:58:22.936Z,34.23
2023-05-07T13:00:53.064Z,32.78
2023-05-07T13:03:29.431Z,33.36
2023-05-07T13:06:01.333Z,34.16
2023-05-07T13:08:46.371Z,34.11
2023-05-07T13:11:14.980Z,34.49
2023-05-07T13:13:43.621Z,34.19
2023-05-07T13:16:12.931Z,35.62
2023-05-07T13:18:42.383Z,34.91
2023-05-07T13:21:11.672Z,34.28
2023-05-07T13:23:40.089Z,33.14
2023-05-07T13:26:24.902Z,33.63
2023-05-07T13:28:57.263Z,33.10
2023-05-07T13:31:28.729Z,33.43
2023-05-07T13:33:57.635Z,33.12
2023-05-07T13:36:26.144Z,33.23
2023-05-07T13:38:54.654Z,32.64
2023-05-07T13:41:22.819Z,33.13
2023-05-07T13:43:51.286Z,34.49
2023-05-07T13:46:19.994Z,34.61
2023-05-07T13:48:48.488Z,33.74
2023-05-07T13:51:17.000Z,33.56
2023-05-07T13:53:45.400Z,34.48
2023-05-07T13:56:13.868Z,33.52
2023-05-07T13:58:52.383Z,32.91
2023-05-07T14:01:28.278Z,34.72
2023-05-07T14:03:59.228Z,33.42
2023-05-07T14:06:27.836Z,32.86
2023-05-07T14:08:56.472Z,33.11
2023-05-07T14:11:24.876Z,33.35
2023-05-07T14:13:53.455Z,34.62
2023-05-07T14:16:24.462Z,34.16
2023-05-07T14:18:52.928Z,34.35
2023-05-07T14:21:21.479Z,34.31
2023-05-07T14:23:50.078Z,34.03
2023-05-07T14:26:21.019Z,36.40
2023-05-07T14:28:49.697Z,34.45
2023-05-07T14:31:17.954Z,35.34
2023-05-07T14:33:46.256Z,34.72
2023-05-07T14:36:16.705Z,34.15
2023-05-07T14:38:45.346Z,34.20
2023-05-07T14:41:13.598Z,34.38
2023-05-07T14:43:42.049Z,33.65
2023-05-07T14:46:10.577Z,34.14
2023-05-07T14:48:38.696Z,34.88
2023-05-07T14:51:07.958Z,35.45
2023-05-07T14:53:36.449Z,35.39
2023-05-07T14:56:05.120Z,34.96
2023-05-07T14:58:33.609Z,35.71
2023-05-07T15:01:02.061Z,36.22
2023-05-07T15:03:31.034Z,35.53
2023-05-07T15:05:59.819Z,34.82
2023-05-07T15:08:28.203Z,38.03
2023-05-07T15:10:57.299Z,37.12
2023-05-07T15:13:25.481Z,37.59
2023-05-07T15:15:53.869Z,37.92
2023-05-07T15:18:23.098Z,37.45
2023-05-07T15:20:51.670Z,37.60
2023-05-07T15:23:19.990Z,39.87
2023-05-07T15:25:52.480Z,38.93
2023-05-07T15:28:22.242Z,38.81
2023-05-07T15:30:50.706Z,38.21
2023-05-07T15:33:19.473Z,38.44
2023-05-07T15:35:47.974Z,39.04
2023-05-07T15:38:17.216Z,39.49
2023-05-07T15:40:46.129Z,40.30
2023-05-07T15:43:14.418Z,40.49
2023-05-07T15:45:44.465Z,41.04
2023-05-07T15:48:13.152Z,41.49
2023-05-07T15:50:41.646Z,41.46
2023-05-07T15:53:10.986Z,41.78
2023-05-07T15:55:39.366Z,41.95
2023-05-07T15:58:08.256Z,42.21
2023-05-07T16:03:05.188Z,42.10
2023-05-07T16:05:33.588Z,42.27
2023-05-07T16:08:02.378Z,42.79
2023-05-07T16:10:31.160Z,43.38
2023-05-07T16:12:59.360Z,43.42
2023-05-07T16:15:27.842Z,44.05
2023-05-07T16:17:58.521Z,44.23
2023-05-07T16:20:31.018Z,44.19
2023-05-07T16:23:00.053Z,45.22
2023-05-07T16:25:28.555Z,44.94
2023-05-07T16:27:57.484Z,44.95
2023-05-07T16:30:25.624Z,45.73
2023-05-07T16:32:54.141Z,46.34
2023-05-07T16:35:22.693Z,46.41
2023-05-07T16:37:51.094Z,46.95
2023-05-07T16:40:19.983Z,47.64
2023-05-07T16:42:48.412Z,47.94
2023-05-07T16:45:17.481Z,48.29
2023-05-07T16:47:45.974Z,49.83
2023-05-07T16:50:14.722Z,49.61
2023-05-07T16:52:50.258Z,47.75
2023-05-07T16:55:19.055Z,47.71
2023-05-07T16:57:47.392Z,47.63
2023-05-07T17:00:16.191Z,48.21
2023-05-07T17:02:46.104Z,48.09
2023-05-07T17:05:15.007Z,48.76
2023-05-07T17:07:43.711Z,48.85
2023-05-07T17:10:12.322Z,49.56
2023-05-07T17:12:41.285Z,49.60
2023-05-07T17:15:11.045Z,49.16
2023-05-07T17:17:41.961Z,50.20
2023-05-07T17:20:11.308Z,50.90
2023-05-07T17:22:40.093Z,51.71
2023-05-07T17:25:09.024Z,51.55
2023-05-07T17:27:37.559Z,52.04
2023-05-07T17:30:06.533Z,52.60
2023-05-07T17:32:35.522Z,53.79
2023-05-07T17:35:04.697Z,54.06
2023-05-07T17:37:33.246Z,54.57
2023-05-07T17:40:01.898Z,54.94
2023-05-07T17:42:32.321Z,55.38
2023-05-07T17:45:00.986Z,55.92
2023-05-07T17:47:29.487Z,55.89
2023-05-07T17:49:58.188Z,56.39
2023-05-07T17:52:27.219Z,56.59
2023-05-07T17:54:55.485Z,57.73
2023-05-07T17:57:24.063Z,57.64
2023-05-07T17:59:52.359Z,59.09
2023-05-07T18:02:21.054Z,59.31
2023-05-07T18:04:49.334Z,59.00
2023-05-07T18:07:17.702Z,59.03
2023-05-07T18:09:46.280Z,59.21
2023-05-07T18:12:14.778Z,59.51
2023-05-07T18:14:43.694Z,59.57
2023-05-07T18:17:12.695Z,59.83
2023-05-07T18:19:42.372Z,59.58
2023-05-07T18:22:10.820Z,59.73
2023-05-07T18:24:39.415Z,59.88
2023-05-07T18:27:07.760Z,60.09
2023-05-07T18:29:36.207Z,60.05
2023-05-07T18:32:04.784Z,60.54
2023-05-07T18:34:33.293Z,60.78
2023-05-07T18:37:02.313Z,60.72
2023-05-07T18:39:32.080Z,61.47
2023-05-07T18:42:00.724Z,61.31
2023-05-07T18:44:31.735Z,61.97
2023-05-07T18:47:00.372Z,62.41
2023-05-07T18:49:28.663Z,62.45
2023-05-07T18:51:57.526Z,62.43
2023-05-07T18:54:26.009Z,63.59
2023-05-07T18:56:54.554Z,63.17
2023-05-07T18:59:22.909Z,62.99
2023-05-07T19:01:51.565Z,63.18
2023-05-07T19:04:20.714Z,63.24
2023-05-07T19:06:49.203Z,63.28
2023-05-07T19:09:17.490Z,63.14
2023-05-07T19:11:45.802Z,63.39
2023-05-07T19:14:14.199Z,63.36
2023-05-07T19:16:42.729Z,63.28
2023-05-07T19:19:11.435Z,63.87
2023-05-07T19:21:39.803Z,64.16
2023-05-07T19:24:08.672Z,63.32
2023-05-07T19:26:37.342Z,64.21
2023-05-07T19:29:17.390Z,65.10
2023-05-07T19:31:47.376Z,65.25
2023-05-07T19:34:16.294Z,65.60
2023-05-07T19:36:44.928Z,64.79
2023-05-07T19:39:13.382Z,64.59
2023-05-07T19:41:42.319Z,64.92
2023-05-07T19:44:11.657Z,65.45
2023-05-07T19:46:43.680Z,65.13
2023-05-07T19:49:13.213Z,65.24
2023-05-07T19:51:41.833Z,65.36
2023-05-07T19:54:10.404Z,65.25
2023-05-07T19:56:40.286Z,65.62
2023-05-07T19:59:09.160Z,65.54
2023-05-07T20:01:39.448Z,65.80
2023-05-07T20:04:08.028Z,66.43
2023-05-07T20:06:36.440Z,66.50
2023-05-07T20:09:05.015Z,66.65
2023-05-07T20:11:33.427Z,66.11
2023-05-07T20:14:02.299Z,66.08
2023-05-07T20:16:30.735Z,66.29
2023-05-07T20:18:59.941Z,66.85
2023-05-07T20:21:28.507Z,66.52
2023-05-07T20:23:57.478Z,67.26
2023-05-07T20:26:27.097Z,67.73
2023-05-07T20:28:55.582Z,67.21
2023-05-07T20:31:24.258Z,67.39
2023-05-07T20:33:52.635Z,67.71
2023-05-07T20:36:21.201Z,67.00
2023-05-07T20:38:50.288Z,67.65
2023-05-07T20:41:19.006Z,67.80
2023-05-07T20:43:48.885Z,67.67
2023-05-07T20:46:17.557Z,68.01
2023-05-07T20:48:45.844Z,67.60
2023-05-07T20:51:16.253Z,67.64
2023-05-07T20:53:47.317Z,68.05
2023-05-07T20:56:16.472Z,67.94
2023-05-07T20:58:45.010Z,68.15
2023-05-07T21:01:13.658Z,67.95
2023-05-07T21:03:41.989Z,68.04
2023-05-07T21:06:10.528Z,68.64
2023-05-07T21:08:39.231Z,68.76
2023-05-07T21:11:08.306Z,68.20
2023-05-07T21:13:36.765Z,68.00
2023-05-07T21:16:05.485Z,68.12
2023-05-07T21:18:33.749Z,68.09
2023-05-07T21:21:02.085Z,67.98
2023-05-07T21:23:30.229Z,68.43
2023-05-07T21:25:58.049Z,68.97
2023-05-07T21:28:25.978Z,69.43
2023-05-07T21:30:54.428Z,68.92
2023-05-07T21:33:25.598Z,69.04
2023-05-07T21:35:56.577Z,69.17
2023-05-07T21:38:24.566Z,69.05
2023-05-07T21:40:52.715Z,69.39
2023-05-07T21:43:21.086Z,70.48
2023-05-07T21:45:49.021Z,70.81
2023-05-07T21:48:22.437Z,70.19
2023-05-07T21:51:07.326Z,70.32
2023-05-07T21:53:36.399Z,68.83
2023-05-07T21:56:05.245Z,68.99
2023-05-07T21:58:33.288Z,69.46
2023-05-07T22:01:02.100Z,69.48
2023-05-07T22:03:30.453Z,69.52
2023-05-07T22:05:58.541Z,69.88
2023-05-07T22:08:26.584Z,69.49
2023-05-07T22:10:54.808Z,70.29
2023-05-07T22:13:22.941Z,70.76
2023-05-07T22:15:57.392Z,71.08
2023-05-07T22:18:26.881Z,70.40
2023-05-07T22:20:54.727Z,70.21
2023-05-07T22:23:22.835Z,70.68
2023-05-07T22:25:50.750Z,70.47
2023-05-07T22:28:19.029Z,70.32
2023-05-07T22:30:46.944Z,70.86
2023-05-07T22:33:15.073Z,71.83
2023-05-07T22:35:43.007Z,71.29
2023-05-07T22:38:10.822Z,70.70
2023-05-07T22:40:38.685Z,70.29
2023-05-07T22:43:06.703Z,70.43
2023-05-07T22:45:34.546Z,70.26
2023-05-07T22:48:02.614Z,70.09
2023-05-07T22:50:30.581Z,70.19
2023-05-07T22:52:58.680Z,70.38
2023-05-07T22:55:27.361Z,70.75
2023-05-07T22:57:55.199Z,70.66
2023-05-07T23:00:23.724Z,70.81
2023-05-07T23:02:51.801Z,70.95
2023-05-07T23:05:20.635Z,71.34
2023-05-07T23:07:48.639Z,71.60
2023-05-07T23:10:16.705Z,71.62
2023-05-07T23:12:49.293Z,71.35
2023-05-07T23:15:19.067Z,71.50
2023-05-07T23:17:48.027Z,71.66
2023-05-07T23:20:16.074Z,71.46
2023-05-07T23:22:43.953Z,71.19
2023-05-07T23:25:12.096Z,72.62
2023-05-07T23:27:39.942Z,71.73
2023-05-07T23:30:08.698Z,71.67
2023-05-07T23:32:36.607Z,71.54
2023-05-07T23:35:05.050Z,72.46
2023-05-07T23:37:32.896Z,72.32
2023-05-07T23:40:00.800Z,71.98
2023-05-07T23:42:28.887Z,71.93
2023-05-07T23:44:57.078Z,72.04
2023-05-07T23:47:25.278Z,71.89
2023-05-07T23:49:53.126Z,72.47
2023-05-07T23:52:21.227Z,72.73
2023-05-07T23:54:49.119Z,72.96
2023-05-07T23:57:17.034Z,72.90
2023-05-07T23:59:44.892Z,72.51
